Time;durP1;ratioP1;P1;durP2;ratioP2;P2;SDS_P1;SDS_P2;PMS_P1;PMS_P2;Temp;Humidity;BMP_temperature;BMP_pressure;BME280_temperature;BME280_humidity;BME280_pressure;Samples;Min_cycle;Max_cycle;Signal;HPM_P1;HPM_P2
2024/04/25 00:01:05;;;;;;;4.82;1.10;;;5.50;99.90;;;;;;5451403;26;20010;-56
2024/04/25 00:03:31;;;;;;;5.03;1.35;;;5.50;99.90;;;;;;5453231;26;20496;-54
2024/04/25 00:05:57;;;;;;;10.25;0.82;;;5.50;99.90;;;;;;5453228;26;20347;-52
2024/04/25 00:08:22;;;;;;;1.50;0.80;;;5.50;99.90;;;;;;5453591;26;20009;-52
2024/04/25 00:10:54;;;;;;;5.20;1.17;;;5.60;99.90;;;;;;5451749;26;19995;-52
2024/04/25 00:13:26;;;;;;;6.38;1.00;;;5.60;99.90;;;;;;5453055;26;19998;-52
2024/04/25 00:15:53;;;;;;;5.47;0.93;;;5.60;99.90;;;;;;5453028;26;20010;-51
2024/04/25 00:18:18;;;;;;;4.43;0.73;;;5.60;99.90;;;;;;5452738;26;20444;-56
2024/04/25 00:20:44;;;;;;;2.83;0.63;;;5.60;99.90;;;;;;5453014;26;20310;-49
2024/04/25 00:23:10;;;;;;;10.32;1.17;;;5.60;99.90;;;;;;5453125;26;20455;-53
2024/04/25 00:25:35;;;;;;;3.47;1.10;;;5.70;99.90;;;;;;5480751;26;20005;-53
2024/04/25 00:28:01;;;;;;;4.72;1.38;;;5.60;99.90;;;;;;5485508;26;20013;-51
2024/04/25 00:30:26;;;;;;;2.85;0.65;;;5.70;99.90;;;;;;5451189;26;20333;-56
2024/04/25 00:32:53;;;;;;;6.03;1.00;;;5.70;99.90;;;;;;5452471;26;20003;-55
2024/04/25 00:35:19;;;;;;;4.38;1.08;;;5.80;99.90;;;;;;5453008;26;19999;-52
2024/04/25 00:37:44;;;;;;;0.90;0.50;;;5.80;99.90;;;;;;5451215;26;20068;-53
2024/04/25 00:40:10;;;;;;;6.47;1.08;;;5.80;99.90;;;;;;5453206;26;19995;-55
2024/04/25 00:42:36;;;;;;;1.75;0.60;;;5.80;99.90;;;;;;5452917;26;20003;-51
2024/04/25 00:45:02;;;;;;;1.33;0.47;;;5.80;99.90;;;;;;5454405;26;20006;-54
2024/04/25 00:47:29;;;;;;;10.90;0.90;;;5.80;99.90;;;;;;5489014;26;19994;-43
2024/04/25 00:49:56;;;;;;;0.83;0.50;;;5.80;99.90;;;;;;5489141;26;20013;-53
2024/04/25 00:52:22;;;;;;;3.90;0.85;;;5.90;99.90;;;;;;5488883;26;19994;-64
2024/04/25 00:54:49;;;;;;;1.58;0.80;;;5.90;99.90;;;;;;5488881;26;20375;-50
2024/04/25 00:57:15;;;;;;;3.08;0.95;;;6.00;99.90;;;;;;5487929;26;20418;-54
2024/04/25 00:59:43;;;;;;;0.50;0.50;;;6.00;99.90;;;;;;5488941;26;20458;-54
2024/04/25 01:02:11;;;;;;;2.85;0.50;;;6.00;99.90;;;;;;5486720;26;19999;-53
2024/04/25 01:04:37;;;;;;;7.15;0.77;;;6.00;99.90;;;;;;5487565;26;19998;-52
2024/04/25 01:07:03;;;;;;;3.42;0.70;;;6.00;99.90;;;;;;5477901;26;20319;-53
2024/04/25 01:09:29;;;;;;;7.32;0.85;;;5.90;99.90;;;;;;5476342;26;20480;-41
2024/04/25 01:11:56;;;;;;;3.33;0.65;;;5.90;99.90;;;;;;5488627;26;20006;-40
2024/04/25 01:14:22;;;;;;;5.57;0.95;;;5.90;99.90;;;;;;5452355;26;19999;-41
2024/04/25 01:16:48;;;;;;;4.93;0.80;;;5.80;99.90;;;;;;5452131;26;20018;-41
2024/04/25 01:19:14;;;;;;;0.60;0.47;;;5.80;99.90;;;;;;5453664;26;20458;-53
2024/04/25 01:21:41;;;;;;;5.03;0.63;;;5.70;99.90;;;;;;5452330;26;20076;-52
2024/04/25 01:24:08;;;;;;;4.38;0.40;;;5.70;99.90;;;;;;5458024;26;19994;-60
2024/04/25 01:26:34;;;;;;;1.45;1.02;;;5.70;99.90;;;;;;5488364;26;20066;-53
2024/04/25 01:29:02;;;;;;;6.57;0.63;;;5.60;99.90;;;;;;5488420;26;19994;-55
2024/04/25 01:31:27;;;;;;;;;;;5.60;99.90;;;;;;5486667;26;20516;-52
2024/04/25 01:33:53;;;;;;;8.77;0.80;;;5.50;99.90;;;;;;5451851;26;19924;-55
2024/04/25 01:36:20;;;;;;;6.05;0.88;;;5.50;99.90;;;;;;5451350;26;20333;-53
2024/04/25 01:38:46;;;;;;;4.63;0.70;;;5.50;99.90;;;;;;5451841;26;19995;-52
2024/04/25 01:41:12;;;;;;;10.98;0.80;;;5.50;99.90;;;;;;5451704;26;20006;-53
2024/04/25 01:43:37;;;;;;;1.25;0.40;;;5.40;99.90;;;;;;5451679;26;19994;-48
2024/04/25 01:46:03;;;;;;;4.13;0.60;;;5.40;99.90;;;;;;5451665;26;19991;-52
2024/04/25 01:48:29;;;;;;;1.33;0.57;;;5.40;99.90;;;;;;5449829;26;19991;-70
2024/04/25 01:50:55;;;;;;;4.53;0.70;;;5.40;99.90;;;;;;5451589;26;20142;-49
2024/04/25 01:53:20;;;;;;;7.82;0.65;;;5.40;99.90;;;;;;5452372;26;20015;-54
2024/04/25 01:55:46;;;;;;;5.32;0.93;;;5.50;99.90;;;;;;5451593;26;20409;-54
2024/04/25 01:58:11;;;;;;;9.57;0.95;;;5.60;99.90;;;;;;5463465;26;20066;-52
2024/04/25 02:00:37;;;;;;;2.15;0.82;;;5.60;99.90;;;;;;5482100;26;19991;-54
2024/04/25 02:03:03;;;;;;;1.27;0.70;;;5.70;99.90;;;;;;5449627;26;19995;-54
2024/04/25 02:05:28;;;;;;;5.28;0.70;;;5.70;99.90;;;;;;5452983;26;20003;-51
2024/04/25 02:07:54;;;;;;;3.78;0.93;;;5.70;99.90;;;;;;5472034;26;19994;-54
2024/04/25 02:10:20;;;;;;;7.22;0.73;;;5.80;99.90;;;;;;5462204;26;19991;-54
2024/04/25 02:12:46;;;;;;;2.15;0.82;;;5.80;99.90;;;;;;5459969;26;20001;-52
2024/04/25 02:15:11;;;;;;;0.80;0.80;;;5.80;99.90;;;;;;5491571;26;19990;-54
2024/04/25 02:17:39;;;;;;;1.70;0.90;;;5.80;99.90;;;;;;5491269;26;20392;-53
2024/04/25 02:25:13;;;;;;;3.05;0.85;;;5.80;99.90;;;;;;5489365;26;20001;-52
2024/04/25 02:25:36;;;;;;;2.22;0.60;;;5.70;99.90;;;;;;5462702;26;20010;-52
2024/04/25 02:28:02;;;;;;;4.03;0.40;;;5.70;99.90;;;;;;5473404;26;19994;-52
2024/04/25 02:30:28;;;;;;;4.40;0.90;;;5.70;99.90;;;;;;5491470;26;19994;-42
2024/04/25 02:32:53;;;;;;;3.22;0.75;;;5.70;99.90;;;;;;5466880;26;20448;-41
2024/04/25 02:35:19;;;;;;;1.02;0.40;;;5.70;99.90;;;;;;5454374;26;20009;-41
2024/04/25 02:37:44;;;;;;;10.57;1.15;;;5.70;99.90;;;;;;5470907;26;20331;-41
2024/04/25 02:40:10;;;;;;;5.47;0.70;;;5.70;99.90;;;;;;5490735;26;20382;-41
2024/04/25 02:42:36;;;;;;;2.78;1.02;;;5.70;99.90;;;;;;5490838;26;20009;-41
2024/04/25 02:45:01;;;;;;;1.38;0.68;;;5.70;99.90;;;;;;5471853;26;20006;-40
2024/04/25 02:47:27;;;;;;;6.43;0.52;;;5.70;99.90;;;;;;5454234;26;20014;-41
2024/04/25 02:49:53;;;;;;;7.38;1.40;;;5.80;99.90;;;;;;5452493;26;19999;-45
2024/04/25 02:52:18;;;;;;;2.30;0.70;;;5.80;99.90;;;;;;5454309;26;19999;-41
2024/04/25 02:54:44;;;;;;;2.75;0.50;;;5.80;99.90;;;;;;5454324;26;20010;-58
2024/04/25 02:57:09;;;;;;;0.77;0.77;;;5.90;99.90;;;;;;5465811;26;20071;-42
2024/04/25 02:59:35;;;;;;;3.00;1.13;;;5.90;99.90;;;;;;5490613;26;19994;-45
2024/04/25 03:02:03;;;;;;;3.22;0.75;;;5.90;99.90;;;;;;5472275;26;20005;-48
2024/04/25 03:04:29;;;;;;;3.42;0.80;;;5.90;99.90;;;;;;5454266;26;20063;-43
2024/04/25 03:06:54;;;;;;;2.85;0.50;;;5.90;99.90;;;;;;5452358;26;19995;-44
2024/04/25 03:09:20;;;;;;;3.40;1.00;;;5.80;99.90;;;;;;5453654;26;19998;-42
2024/04/25 03:11:45;;;;;;;7.35;1.02;;;5.80;99.90;;;;;;5454060;26;19999;-40
2024/04/25 03:14:11;;;;;;;2.65;0.93;;;5.80;99.90;;;;;;5453958;26;20440;-45
2024/04/25 03:16:37;;;;;;;1.83;0.70;;;5.80;99.90;;;;;;5454040;26;20456;-42
2024/04/25 03:19:02;;;;;;;1.95;0.52;;;5.80;99.90;;;;;;5454940;26;19995;-46
2024/04/25 03:21:28;;;;;;;2.95;1.10;;;5.80;99.90;;;;;;5453212;26;20492;-44
2024/04/25 03:23:53;;;;;;;4.35;1.13;;;5.80;99.90;;;;;;5453856;26;20026;-40
2024/04/25 03:26:19;;;;;;;3.53;0.85;;;5.80;99.90;;;;;;5453843;26;20006;-44
2024/04/25 03:28:45;;;;;;;0.80;0.52;;;5.70;99.90;;;;;;5453900;26;20006;-42
2024/04/25 03:31:10;;;;;;;5.95;0.80;;;5.70;99.90;;;;;;5453772;26;20389;-42
2024/04/25 03:33:36;;;;;;;1.40;1.08;;;5.70;99.90;;;;;;5475689;26;19999;-41
2024/04/25 03:36:02;;;;;;;4.20;2.35;;;5.70;99.90;;;;;;5452985;26;19998;-41
2024/04/25 03:38:27;;;;;;;0.75;0.70;;;5.70;99.90;;;;;;5453338;26;20005;-42
2024/04/25 03:40:53;;;;;;;2.38;0.70;;;5.60;99.90;;;;;;5453519;26;20026;-41
2024/04/25 03:43:19;;;;;;;2.15;0.88;;;5.60;99.90;;;;;;5451729;26;20440;-54
2024/04/25 03:45:44;;;;;;;8.85;1.45;;;5.60;99.90;;;;;;5451783;26;19999;-50
2024/04/25 03:48:10;;;;;;;2.13;0.60;;;5.60;99.90;;;;;;5453751;26;20520;-55
2024/04/25 03:50:36;;;;;;;2.45;0.85;;;5.60;99.90;;;;;;5454093;26;20385;-53
2024/04/25 03:53:01;;;;;;;9.40;1.80;;;5.60;99.90;;;;;;5470981;26;19995;-55
2024/04/25 03:55:27;;;;;;;1.10;0.80;;;5.60;99.90;;;;;;5451567;26;19999;-53
2024/04/25 03:57:53;;;;;;;3.13;0.93;;;5.60;99.90;;;;;;5475690;26;20010;-53
2024/04/25 04:00:19;;;;;;;3.55;1.30;;;5.60;99.90;;;;;;5489853;26;19999;-54
2024/04/25 04:02:44;;;;;;;2.55;0.90;;;5.60;99.90;;;;;;5489775;26;19994;-53
2024/04/25 04:05:11;;;;;;;1.73;1.02;;;5.50;99.90;;;;;;5489585;26;20026;-54
2024/04/25 04:07:38;;;;;;;2.00;1.10;;;5.60;99.90;;;;;;5489663;26;20320;-53
2024/04/25 04:10:04;;;;;;;1.17;1.02;;;5.50;99.90;;;;;;5469994;26;20027;-54
2024/04/25 04:12:30;;;;;;;1.73;0.85;;;5.50;99.90;;;;;;5453264;26;20006;-53
2024/04/25 04:14:56;;;;;;;8.63;1.30;;;5.50;99.90;;;;;;5453181;26;20432;-54
2024/04/25 04:17:21;;;;;;;2.97;1.00;;;5.40;99.90;;;;;;5453178;26;20005;-54
2024/04/25 04:19:47;;;;;;;4.95;1.10;;;5.40;99.90;;;;;;5453153;26;20492;-55
2024/04/25 04:22:13;;;;;;;3.95;1.20;;;5.30;99.90;;;;;;5453142;26;20010;-57
2024/04/25 04:24:38;;;;;;;4.93;1.20;;;5.40;99.90;;;;;;5453282;26;20343;-52
2024/04/25 04:27:04;;;;;;;1.80;1.02;;;5.40;99.90;;;;;;5453945;26;19994;-52
2024/04/25 04:29:30;;;;;;;5.97;0.95;;;5.50;99.90;;;;;;5452950;26;19999;-53
2024/04/25 04:31:55;;;;;;;2.67;0.85;;;5.50;99.90;;;;;;5452527;26;20027;-55
2024/04/25 04:34:21;;;;;;;6.15;1.70;;;5.50;99.90;;;;;;5450737;26;20014;-57
2024/04/25 04:36:46;;;;;;;8.13;0.98;;;5.60;99.90;;;;;;5452756;26;19995;-53
2024/04/25 04:39:13;;;;;;;2.03;1.38;;;5.60;99.90;;;;;;5452846;26;20014;-70
2024/04/25 04:41:39;;;;;;;5.97;1.10;;;5.70;99.90;;;;;;5452627;26;19995;-54
2024/04/25 04:44:04;;;;;;;7.07;1.33;;;5.70;99.90;;;;;;5453460;26;20055;-53
2024/04/25 04:46:30;;;;;;;7.55;1.13;;;5.70;99.90;;;;;;5452814;26;19999;-54
2024/04/25 04:48:56;;;;;;;8.02;1.70;;;5.80;99.90;;;;;;5453416;26;20410;-53
2024/04/25 04:51:21;;;;;;;4.70;1.30;;;5.80;99.90;;;;;;5488833;26;20353;-52
2024/04/25 04:53:47;;;;;;;0.68;0.65;;;5.90;99.90;;;;;;5489017;26;19994;-53
2024/04/25 04:56:13;;;;;;;2.65;1.00;;;5.90;99.90;;;;;;5488912;26;20443;-54
2024/04/25 04:58:39;;;;;;;4.43;1.05;;;5.90;99.90;;;;;;5488799;26;20118;-53
2024/04/25 05:01:05;;;;;;;4.45;0.93;;;6.00;99.90;;;;;;5469230;26;19995;-66
2024/04/25 05:03:30;;;;;;;7.43;1.17;;;6.00;99.90;;;;;;5452302;26;19994;-55
2024/04/25 05:05:56;;;;;;;1.85;0.85;;;6.00;99.90;;;;;;5452295;26;20466;-55
2024/04/25 05:08:22;;;;;;;3.03;0.90;;;6.10;99.90;;;;;;5452428;26;20491;-55
2024/04/25 05:10:48;;;;;;;7.53;1.02;;;6.10;99.90;;;;;;5452146;26;20009;-53
2024/04/25 05:13:14;;;;;;;12.80;0.82;;;6.20;99.90;;;;;;5452632;26;20546;-53
2024/04/25 05:15:40;;;;;;;2.10;1.08;;;6.20;99.90;;;;;;5452372;26;20005;-53
2024/04/25 05:18:06;;;;;;;6.05;1.05;;;6.30;99.90;;;;;;5453291;26;19995;-53
2024/04/25 05:20:32;;;;;;;3.63;1.08;;;6.30;99.90;;;;;;5452206;26;20003;-54
2024/04/25 05:22:58;;;;;;;5.50;0.95;;;6.40;99.90;;;;;;5450691;26;20006;-57
2024/04/25 05:25:24;;;;;;;5.07;1.02;;;6.40;99.90;;;;;;5451947;26;20072;-55
2024/04/25 05:27:51;;;;;;;2.63;0.93;;;6.30;99.90;;;;;;5452133;26;19999;-52
2024/04/25 05:30:20;;;;;;;4.82;1.27;;;6.40;99.90;;;;;;5452083;26;20357;-68
2024/04/25 05:32:46;;;;;;;2.92;1.15;;;6.40;99.90;;;;;;5451916;26;19999;-53
2024/04/25 05:35:11;;;;;;;6.00;1.17;;;6.40;99.90;;;;;;5473499;26;20074;-53
2024/04/25 05:37:37;;;;;;;4.30;1.58;;;6.50;99.90;;;;;;5485321;26;19998;-53
2024/04/25 05:40:03;;;;;;;3.47;1.15;;;6.50;99.90;;;;;;5488054;26;20443;-54
2024/04/25 05:42:29;;;;;;;5.70;1.30;;;6.60;99.90;;;;;;5488154;26;20032;-54
2024/04/25 05:44:55;;;;;;;4.00;1.23;;;6.70;99.90;;;;;;5487626;26;19998;-60
2024/04/25 05:47:21;;;;;;;2.40;0.90;;;6.80;99.90;;;;;;5477647;26;20071;-54
2024/04/25 05:49:49;;;;;;;5.85;1.38;;;6.80;99.90;;;;;;5451601;26;20369;-54
2024/04/25 05:52:15;;;;;;;6.85;1.17;;;6.90;99.90;;;;;;5473486;26;20486;-51
2024/04/25 05:54:40;;;;;;;3.95;1.50;;;7.00;99.90;;;;;;5487858;26;19998;-53
2024/04/25 05:57:06;;;;;;;8.20;1.20;;;7.00;99.90;;;;;;5486010;26;20016;-54
2024/04/25 05:59:32;;;;;;;3.95;1.88;;;7.10;99.90;;;;;;5486145;26;20334;-42
2024/04/25 06:01:59;;;;;;;3.15;1.20;;;7.10;99.90;;;;;;5488161;26;20447;-47
2024/04/25 06:04:26;;;;;;;2.88;1.65;;;7.30;99.90;;;;;;5487779;26;20358;-42
2024/04/25 06:06:51;;;;;;;2.05;0.93;;;7.40;99.90;;;;;;5486025;26;20006;-41
2024/04/25 06:09:17;;;;;;;6.60;1.52;;;7.40;99.90;;;;;;5464619;26;20500;-43
2024/04/25 06:11:43;;;;;;;4.68;1.15;;;7.60;99.90;;;;;;5451080;26;20048;-44
2024/04/25 06:14:08;;;;;;;5.40;1.45;;;7.80;99.90;;;;;;5451212;26;20009;-42
2024/04/25 06:16:34;;;;;;;9.10;1.20;;;7.80;99.90;;;;;;5451487;26;19998;-41
2024/04/25 06:19:01;;;;;;;6.55;1.00;;;7.90;99.90;;;;;;5451095;26;19999;-39
2024/04/25 06:21:28;;;;;;;7.23;1.00;;;7.90;99.90;;;;;;5451214;26;20317;-42
2024/04/25 06:23:57;;;;;;;4.40;1.58;;;7.90;99.90;;;;;;5450583;26;20366;-42
2024/04/25 06:26:23;;;;;;;5.00;1.58;;;7.90;99.90;;;;;;5451840;26;20500;-41
2024/04/25 06:28:48;;;;;;;2.55;1.35;;;7.90;99.90;;;;;;5451029;26;20002;-43
2024/04/25 06:31:14;;;;;;;16.45;1.70;;;8.00;99.90;;;;;;5450879;26;20009;-42
2024/04/25 06:33:40;;;;;;;7.65;1.63;;;8.10;99.90;;;;;;5450522;26;19998;-43
2024/04/25 06:36:08;;;;;;;4.50;1.10;;;8.10;99.90;;;;;;5450827;26;20440;-46
2024/04/25 06:38:34;;;;;;;1.95;1.35;;;8.20;99.90;;;;;;5450880;26;20006;-44
2024/04/25 06:40:59;;;;;;;5.38;1.33;;;8.10;99.90;;;;;;5450676;26;20455;-42
2024/04/25 06:43:25;;;;;;;6.30;1.40;;;8.20;99.90;;;;;;5475393;26;20009;-47
2024/04/25 06:45:51;;;;;;;5.28;1.40;;;8.20;99.90;;;;;;5473690;26;19999;-49
2024/04/25 06:48:16;;;;;;;7.03;1.27;;;8.20;99.90;;;;;;5450662;26;20005;-44
2024/04/25 06:50:42;;;;;;;1.30;1.20;;;8.20;99.90;;;;;;5450522;26;20006;-45
2024/04/25 06:53:09;;;;;;;3.13;1.33;;;8.20;99.90;;;;;;5450285;26;20127;-43
2024/04/25 06:55:35;;;;;;;4.78;1.38;;;8.20;99.90;;;;;;5451223;26;20440;-46
2024/04/25 06:58:01;;;;;;;2.55;1.20;;;8.30;99.90;;;;;;5472973;26;20467;-48
2024/04/25 07:00:26;;;;;;;9.52;1.13;;;8.30;99.90;;;;;;5470949;26;19998;-48
2024/04/25 07:02:52;;;;;;;4.03;1.13;;;8.40;99.90;;;;;;5488595;26;20008;-46
2024/04/25 07:05:18;;;;;;;2.38;1.23;;;8.40;99.90;;;;;;5464522;26;19999;-46
2024/04/25 07:07:44;;;;;;;8.80;1.15;;;8.40;99.90;;;;;;5454540;26;19995;-47
2024/04/25 07:10:09;;;;;;;7.28;1.60;;;8.50;99.90;;;;;;5452904;26;20389;-56
2024/04/25 07:12:35;;;;;;;1.10;0.90;;;8.60;99.90;;;;;;5454595;26;20385;-52
2024/04/25 07:15:06;;;;;;;5.50;1.17;;;8.60;99.90;;;;;;5454261;26;20006;-53
2024/04/25 07:17:34;;;;;;;4.18;1.35;;;8.70;99.90;;;;;;5454199;26;20009;-54
2024/04/25 07:20:00;;;;;;;;;;;8.70;99.90;;;;;;5454478;26;20460;-54
2024/04/25 07:22:26;;;;;;;5.85;1.38;;;8.80;99.90;;;;;;5452156;26;19931;-55
2024/04/25 07:24:51;;;;;;;6.53;1.73;;;8.90;99.90;;;;;;5453742;26;20381;-53
2024/04/25 07:27:17;;;;;;;7.75;1.73;;;8.90;99.90;;;;;;5453667;26;19995;-53
2024/04/25 07:29:44;;;;;;;7.05;1.23;;;9.00;99.90;;;;;;5456013;26;20347;-54
2024/04/25 07:32:10;;;;;;;4.10;1.27;;;9.20;99.90;;;;;;5466513;26;20026;-54
2024/04/25 07:34:36;;;;;;;4.38;1.35;;;9.40;99.90;;;;;;5462406;26;20055;-52
2024/04/25 07:37:02;;;;;;;8.18;1.48;;;9.40;99.90;;;;;;5451778;26;20006;-56
2024/04/25 07:39:27;;;;;;;9.10;2.00;;;9.20;99.90;;;;;;5479742;26;20066;-53
2024/04/25 07:41:53;;;;;;;7.18;1.33;;;9.00;99.90;;;;;;5489970;26;19990;-53
2024/04/25 07:44:18;;;;;;;3.85;1.58;;;8.90;99.90;;;;;;5484156;26;20119;-57
2024/04/25 07:46:44;;;;;;;1.45;0.80;;;8.90;99.90;;;;;;5453901;26;20389;-47
2024/04/25 07:49:12;;;;;;;6.32;1.73;;;8.90;99.90;;;;;;5450973;26;19995;-54
2024/04/25 07:51:38;;;;;;;1.55;0.88;;;9.10;99.90;;;;;;5454311;26;20511;-53
2024/04/25 07:54:04;;;;;;;1.63;0.88;;;9.30;99.90;;;;;;5472543;26;20067;-53
2024/04/25 07:56:30;;;;;;;4.32;1.00;;;9.30;99.90;;;;;;5453084;26;20359;-65
2024/04/25 07:58:56;;;;;;;4.43;1.05;;;9.40;99.90;;;;;;5490046;26;20010;-52
2024/04/25 08:01:21;;;;;;;2.38;0.70;;;9.40;99.90;;;;;;5489757;26;20459;-52
2024/04/25 08:03:47;;;;;;;7.30;0.85;;;9.40;99.90;;;;;;5489657;26;20335;-53
2024/04/25 08:06:13;;;;;;;2.97;0.93;;;9.30;99.90;;;;;;5489453;26;20474;-51
2024/04/25 08:08:39;;;;;;;2.80;0.98;;;9.10;99.90;;;;;;5459740;26;19994;-53
2024/04/25 08:11:06;;;;;;;2.13;0.75;;;9.00;99.90;;;;;;5452911;26;19991;-53
2024/04/25 08:13:32;;;;;;;1.88;1.08;;;8.80;99.90;;;;;;5453048;26;20070;-51
2024/04/25 08:15:57;;;;;;;3.75;0.80;;;8.80;99.90;;;;;;5453138;26;20036;-52
2024/04/25 08:18:23;;;;;;;5.35;1.77;;;8.80;99.90;;;;;;5453410;26;19991;-53
2024/04/25 08:20:49;;;;;;;4.90;0.88;;;8.90;99.90;;;;;;5453187;26;20002;-54
2024/04/25 08:23:15;;;;;;;2.60;0.80;;;8.90;99.90;;;;;;5453027;26;19991;-54
2024/04/25 08:25:40;;;;;;;4.97;0.35;;;8.90;99.90;;;;;;5481246;26;19997;-52
2024/04/25 08:28:10;;;;;;;1.55;0.43;;;8.90;99.90;;;;;;5489342;26;20009;-49
2024/04/25 08:30:36;;;;;;;2.13;0.75;;;9.00;99.90;;;;;;5489259;26;20067;-53
2024/04/25 08:33:02;;;;;;;4.93;0.73;;;9.00;99.90;;;;;;5462989;26;19999;-51
2024/04/25 08:35:27;;;;;;;0.85;0.50;;;9.10;99.90;;;;;;5450951;26;20432;-54
2024/04/25 08:37:53;;;;;;;4.18;1.05;;;9.10;99.90;;;;;;5452442;26;19995;-53
2024/04/25 08:40:19;;;;;;;1.70;0.90;;;9.10;99.90;;;;;;5452505;26;20444;-53
2024/04/25 08:42:49;;;;;;;1.77;0.98;;;9.10;99.90;;;;;;5453007;26;20027;-55
2024/04/25 08:45:16;;;;;;;4.03;0.90;;;9.10;99.90;;;;;;5450610;26;20068;-53
2024/04/25 08:47:42;;;;;;;2.33;1.00;;;9.30;99.90;;;;;;5450747;26;19995;-51
2024/04/25 08:50:09;;;;;;;2.25;0.70;;;9.30;99.90;;;;;;5452387;26;20011;-49
2024/04/25 08:52:41;;;;;;;2.30;0.60;;;9.30;99.90;;;;;;5452402;26;20439;-52
2024/04/25 08:55:11;;;;;;;2.75;1.05;;;9.30;99.90;;;;;;5452665;26;20006;-51
2024/04/25 08:57:37;;;;;;;4.35;0.70;;;9.40;99.90;;;;;;5469123;26;20469;-53
2024/04/25 09:00:03;;;;;;;1.45;0.43;;;9.40;99.90;;;;;;5454228;26;19995;-50
2024/04/25 09:02:33;;;;;;;8.27;1.38;;;9.80;99.90;;;;;;5452487;26;20459;-52
2024/04/25 09:05:00;;;;;;;1.15;0.80;;;9.90;99.90;;;;;;5450916;26;20005;-53
2024/04/25 09:07:27;;;;;;;1.85;0.80;;;9.80;99.90;;;;;;5450565;26;20063;-52
2024/04/25 09:09:55;;;;;;;1.60;1.00;;;9.60;99.90;;;;;;5452279;26;20002;-53
2024/04/25 09:12:20;;;;;;;1.25;0.80;;;9.30;99.90;;;;;;5452299;26;19998;-53
2024/04/25 09:14:46;;;;;;;2.53;1.15;;;8.90;99.90;;;;;;5452494;26;20554;-50
2024/04/25 09:17:15;;;;;;;2.50;1.45;;;8.50;99.90;;;;;;5453020;26;19999;-55
2024/04/25 09:19:41;;;;;;;4.45;1.00;;;8.30;99.90;;;;;;5451219;26;20452;-54
2024/04/25 09:22:07;;;;;;;1.20;0.68;;;8.10;99.90;;;;;;5452038;26;19998;-55
2024/04/25 09:24:32;;;;;;;2.90;1.27;;;8.10;99.90;;;;;;5451901;26;20334;-43
2024/04/25 09:26:58;;;;;;;5.57;1.23;;;8.10;99.90;;;;;;5451649;26;20520;-43
2024/04/25 09:29:24;;;;;;;5.32;1.00;;;8.30;99.90;;;;;;5451875;26;19998;-63
2024/04/25 09:31:53;;;;;;;6.75;1.27;;;8.20;99.90;;;;;;5451840;26;20498;-54
2024/04/25 09:34:18;;;;;;;3.92;1.38;;;8.10;99.90;;;;;;5451631;26;19999;-53
2024/04/25 09:36:44;;;;;;;1.27;0.90;;;8.00;99.90;;;;;;5451931;26;20470;-52
2024/04/25 09:39:10;;;;;;;10.95;0.90;;;8.10;99.90;;;;;;5449531;26;20455;-54
2024/04/25 09:41:37;;;;;;;3.10;1.60;;;8.20;99.90;;;;;;5451674;26;20006;-58
2024/04/25 09:44:03;;;;;;;1.42;0.88;;;8.30;99.90;;;;;;5451766;26;20010;-51
2024/04/25 09:46:37;;;;;;;0.73;0.73;;;8.30;99.90;;;;;;5451602;26;20030;-55
2024/04/25 09:49:05;;;;;;;1.25;1.15;;;8.30;99.90;;;;;;5455574;26;20005;-55
2024/04/25 09:51:41;;;;;;;3.58;1.63;;;8.20;99.90;;;;;;5488026;26;20469;-55
2024/04/25 09:54:18;;;;;;;3.53;1.38;;;8.30;99.90;;;;;;5488022;26;20077;-54
2024/04/25 09:56:48;;;;;;;2.13;1.10;;;8.40;99.90;;;;;;5482531;26;20356;-53
2024/04/25 09:59:34;;;;;;;1.52;1.23;;;8.40;99.90;;;;;;5451349;26;19998;-53
2024/04/25 10:02:03;;;;;;;4.40;0.95;;;8.50;99.90;;;;;;5451423;26;19995;-54
2024/04/25 10:04:31;;;;;;;4.40;1.38;;;8.50;99.90;;;;;;5451218;26;20142;-55
2024/04/25 10:07:02;;;;;;;3.47;1.20;;;8.60;99.90;;;;;;5452619;26;19999;-54
2024/04/25 10:09:28;;;;;;;3.45;0.88;;;8.50;99.90;;;;;;5451128;26;20011;-54
2024/04/25 10:11:57;;;;;;;1.92;1.27;;;8.40;99.90;;;;;;5451047;26;20067;-53
2024/04/25 10:14:28;;;;;;;3.40;1.55;;;8.30;99.90;;;;;;5451132;26;19999;-52
2024/04/25 10:16:53;;;;;;;1.95;1.13;;;8.20;99.90;;;;;;5451368;26;20480;-52
2024/04/25 10:19:19;;;;;;;4.15;1.90;;;8.20;99.90;;;;;;5451289;26;20002;-55
2024/04/25 10:21:46;;;;;;;6.10;1.88;;;8.10;99.90;;;;;;5451421;26;19995;-52
2024/04/25 10:24:14;;;;;;;4.13;1.58;;;8.10;99.90;;;;;;5469873;26;20458;-54
2024/04/25 10:26:46;;;;;;;6.50;1.80;;;8.00;99.90;;;;;;5485601;26;19998;-56
2024/04/25 10:29:12;;;;;;;3.80;1.30;;;7.90;99.90;;;;;;5484736;26;19994;-55
2024/04/25 10:31:41;;;;;;;4.53;1.40;;;7.90;99.90;;;;;;5484510;26;20090;-56
2024/04/25 10:34:09;;;;;;;4.57;1.35;;;7.90;99.90;;;;;;5454694;26;19998;-55
2024/04/25 10:36:35;;;;;;;2.92;1.17;;;7.90;99.90;;;;;;5454810;26;20440;-53
2024/04/25 10:39:02;;;;;;;3.60;1.23;;;7.90;99.90;;;;;;5467263;26;20007;-64
2024/04/25 10:41:40;;;;;;;5.50;2.13;;;7.90;99.90;;;;;;5455175;26;19998;-55
2024/04/25 10:44:10;;;;;;;2.17;1.20;;;7.90;99.90;;;;;;5454836;26;20595;-55
2024/04/25 10:46:36;;;;;;;4.25;1.65;;;7.90;99.90;;;;;;5454576;26;20327;-57
2024/04/25 10:49:07;;;;;;;2.55;1.42;;;8.00;99.90;;;;;;5454411;26;19999;-56
2024/04/25 10:51:34;;;;;;;2.38;1.40;;;8.10;99.90;;;;;;5454258;26;20077;-51
2024/04/25 10:54:00;;;;;;;1.70;1.10;;;8.10;99.90;;;;;;5454263;26;20384;-54
2024/04/25 10:56:26;;;;;;;3.85;1.25;;;8.20;99.90;;;;;;5454734;26;20006;-52
2024/04/25 10:58:53;;;;;;;2.70;1.33;;;8.30;99.90;;;;;;5459277;26;20351;-53
2024/04/25 11:01:31;;;;;;;8.30;1.83;;;8.40;99.90;;;;;;5454138;26;20031;-54
2024/04/25 11:03:58;;;;;;;4.30;1.65;;;8.50;99.90;;;;;;5452285;26;20006;-53
2024/04/25 11:06:26;;;;;;;5.68;1.85;;;8.70;99.90;;;;;;5454040;26;20463;-54
2024/04/25 11:08:53;;;;;;;4.78;1.65;;;8.80;99.90;;;;;;5454127;26;20002;-55
2024/04/25 11:11:19;;;;;;;2.05;1.35;;;8.80;99.90;;;;;;5453982;26;20495;-55
2024/04/25 11:13:45;;;;;;;14.30;1.80;;;8.90;99.90;;;;;;5454345;26;20072;-60
2024/04/25 11:16:11;;;;;;;9.00;1.73;;;9.10;99.90;;;;;;5454775;26;20385;-55
2024/04/25 11:18:37;;;;;;;5.32;1.35;;;9.30;99.90;;;;;;5454000;26;20010;-55
2024/04/25 11:21:06;;;;;;;7.07;1.85;;;9.50;99.90;;;;;;5453868;26;20347;-55
2024/04/25 11:23:32;;;;;;;7.03;1.92;;;9.70;99.90;;;;;;5453954;26;20009;-54
2024/04/25 11:26:02;;;;;;;10.35;2.38;;;10.00;99.90;;;;;;5453899;26;19995;-52
2024/04/25 11:28:31;;;;;;;1.58;1.23;;;10.20;99.90;;;;;;5453747;26;20451;-53
2024/04/25 11:30:58;;;;;;;3.40;1.55;;;10.50;99.90;;;;;;5467303;26;20003;-53
2024/04/25 11:33:26;;;;;;;2.08;1.38;;;10.60;99.90;;;;;;5453492;26;20014;-54
2024/04/25 11:35:52;;;;;;;5.55;1.42;;;10.60;99.90;;;;;;5456481;26;20482;-56
2024/04/25 11:38:18;;;;;;;1.95;1.23;;;10.70;99.90;;;;;;5490078;26;19994;-53
2024/04/25 11:40:49;;;;;;;1.25;1.10;;;10.80;99.90;;;;;;5489453;26;20452;-53
2024/04/25 11:43:16;;;;;;;5.55;1.23;;;10.90;99.90;;;;;;5489603;26;19998;-54
2024/04/25 11:45:45;;;;;;;5.90;1.70;;;11.00;99.90;;;;;;5490131;26;20062;-52
2024/04/25 11:48:16;;;;;;;5.43;1.48;;;11.10;99.90;;;;;;5483576;26;20007;-53
2024/04/25 11:50:42;;;;;;;9.35;1.50;;;11.20;99.90;;;;;;5453583;26;19998;-46
2024/04/25 11:53:09;;;;;;;2.67;1.50;;;11.30;99.90;;;;;;5453269;26;20009;-47
2024/04/25 11:55:38;;;;;;;4.95;2.25;;;11.20;99.90;;;;;;5453506;26;19995;-44
2024/04/25 11:58:07;;;;;;;5.28;1.55;;;11.30;99.90;;;;;;5478702;26;20395;-45
2024/04/25 12:00:36;;;;;;;5.40;1.45;;;11.40;99.90;;;;;;5489716;26;19994;-44
2024/04/25 12:03:03;;;;;;;3.88;1.80;;;11.60;99.90;;;;;;5489699;26;20451;-48
2024/04/25 12:05:29;;;;;;;2.55;0.90;;;11.80;99.90;;;;;;5479055;26;20006;-45
2024/04/25 12:08:00;;;;;;;9.50;1.00;;;11.90;99.90;;;;;;5453310;26;20096;-48
2024/04/25 12:10:30;;;;;;;1.67;1.20;;;12.00;99.90;;;;;;5453180;26;20071;-48
2024/04/25 12:12:56;;;;;;;3.28;1.20;;;12.00;99.90;;;;;;5453002;26;20443;-46
2024/04/25 12:15:21;;;;;;;2.20;1.25;;;12.10;99.90;;;;;;5453163;26;19994;-45
2024/04/25 12:17:47;;;;;;;3.83;1.30;;;12.30;99.90;;;;;;5453016;26;20006;-49
2024/04/25 12:20:13;;;;;;;3.20;1.27;;;12.50;99.90;;;;;;5453636;26;19995;-50
2024/04/25 12:22:38;;;;;;;3.80;1.63;;;12.50;99.90;;;;;;5454197;26;20435;-45
2024/04/25 12:25:04;;;;;;;5.57;1.75;;;12.60;99.90;;;;;;5451280;26;20031;-56
2024/04/25 12:27:30;;;;;;;4.35;1.45;;;12.70;99.90;;;;;;5453278;26;20006;-48
2024/04/25 12:29:55;;;;;;;3.22;1.40;;;12.90;99.90;;;;;;5452924;26;19999;-51
2024/04/25 12:32:21;;;;;;;3.28;1.63;;;13.10;99.90;;;;;;5452960;26;20003;-41
2024/04/25 12:34:47;;;;;;;4.78;1.48;;;13.20;99.90;;;;;;5460762;26;20005;-40
2024/04/25 12:37:12;;;;;;;2.80;1.40;;;13.30;99.90;;;;;;5489682;26;19994;-45
2024/04/25 12:39:41;;;;;;;3.25;1.00;;;13.40;99.90;;;;;;5474702;26;19995;-43
2024/04/25 12:42:08;;;;;;;4.82;1.30;;;13.50;99.90;;;;;;5452250;26;20510;-48
2024/04/25 12:44:34;;;;;;;2.15;1.35;;;13.60;99.90;;;;;;5452630;26;20448;-42
2024/04/25 12:46:59;;;;;;;10.23;2.30;;;13.60;99.90;;;;;;5452791;26;19999;-42
2024/04/25 12:49:35;;;;;;;7.88;1.60;;;13.50;99.90;;;;;;5452703;26;20455;-48
2024/04/25 12:52:04;;;;;;;3.42;1.65;;;13.40;99.90;;;;;;5452586;26;20002;-48
2024/04/25 12:54:29;;;;;;;5.28;1.83;;;13.60;99.90;;;;;;5451100;26;20129;-42